createdAt,value
2022-12-04T00:02:20.904Z,44.3
2022-12-04T00:07:20.896Z,39.7
2022-12-04T00:12:20.899Z,45.5
2022-12-04T00:17:20.894Z,44.6
2022-12-04T00:22:20.943Z,47.7
2022-12-04T00:27:20.906Z,42.0
2022-12-04T00:32:20.908Z,42.7
2022-12-04T00:37:20.914Z,47.1
2022-12-04T00:42:20.912Z,42.7
2022-12-04T00:47:20.914Z,39.3
2022-12-04T00:52:20.918Z,42.3
2022-12-04T00:57:20.934Z,47.8
2022-12-04T01:02:20.951Z,43.0
2022-12-04T01:07:20.926Z,41.4
2022-12-04T01:12:21.227Z,46.8
2022-12-04T01:17:20.939Z,46.3
2022-12-04T01:22:20.928Z,41.7
2022-12-04T01:27:20.936Z,41.0
2022-12-04T01:32:20.932Z,42.4
2022-12-04T01:37:21.009Z,46.2
2022-12-04T01:42:20.948Z,44.6
2022-12-04T01:47:20.942Z,42.9
2022-12-04T01:52:20.943Z,44.1
2022-12-04T01:57:20.949Z,43.6
2022-12-04T02:02:21.071Z,46.0
2022-12-04T02:07:20.955Z,47.1
2022-12-04T02:12:20.954Z,48.5
2022-12-04T02:17:20.959Z,41.0
2022-12-04T02:22:20.960Z,46.9
2022-12-04T02:27:21.033Z,46.5
2022-12-04T02:32:20.966Z,50.0
2022-12-04T02:37:20.966Z,46.6
2022-12-04T02:42:20.965Z,47.2
2022-12-04T02:47:20.968Z,43.5
2022-12-04T02:52:20.972Z,45.9
2022-12-04T02:57:20.990Z,41.9
2022-12-04T03:02:20.996Z,44.6
2022-12-04T03:07:20.982Z,43.2
2022-12-04T03:12:21.067Z,43.0
2022-12-04T03:17:20.984Z,48.4
2022-12-04T03:22:20.985Z,47.1
2022-12-04T03:27:20.996Z,44.7
2022-12-04T03:32:20.990Z,49.5
2022-12-04T03:37:20.998Z,47.0
2022-12-04T03:42:20.996Z,49.2
2022-12-04T03:47:21.001Z,52.8
2022-12-04T03:52:21.000Z,46.1
2022-12-04T03:57:21.016Z,46.5
2022-12-04T04:02:21.076Z,48.9
2022-12-04T04:07:21.004Z,49.6
2022-12-04T04:12:21.108Z,50.0
2022-12-04T04:17:21.011Z,50.7
2022-12-04T04:22:21.015Z,48.9
2022-12-04T04:27:21.010Z,50.3
2022-12-04T04:32:21.026Z,49.6
2022-12-04T04:37:21.011Z,49.4
2022-12-04T04:42:21.020Z,49.9
2022-12-04T04:47:21.026Z,50.2
2022-12-04T04:52:21.025Z,48.3
2022-12-04T04:57:21.027Z,54.0
2022-12-04T05:02:21.048Z,49.9
2022-12-04T05:07:21.035Z,50.1
2022-12-04T05:17:21.037Z,51.5
2022-12-04T05:22:21.039Z,49.5
2022-12-04T05:27:21.049Z,49.0
2022-12-04T05:32:21.052Z,48.7
2022-12-04T05:37:21.046Z,50.0
2022-12-04T05:42:21.052Z,50.2
2022-12-04T05:47:21.047Z,50.7
2022-12-04T05:52:21.073Z,43.9
2022-12-04T05:57:25.241Z,45.3
2022-12-04T06:02:21.111Z,49.0
2022-12-04T06:07:21.062Z,44.6
2022-12-04T06:12:21.062Z,48.1
2022-12-04T06:17:21.114Z,44.5
2022-12-04T06:22:21.068Z,45.4
2022-12-04T06:27:28.836Z,43.1
2022-12-04T06:32:21.711Z,43.3
2022-12-04T06:37:21.090Z,40.6
2022-12-04T06:42:21.094Z,43.6
2022-12-04T06:47:21.079Z,43.7
2022-12-04T06:52:21.084Z,42.5
2022-12-04T06:57:21.087Z,41.3
2022-12-04T07:02:21.179Z,41.0
2022-12-04T07:07:21.093Z,46.1
2022-12-04T07:12:21.096Z,38.3
2022-12-04T07:17:21.097Z,36.6
2022-12-04T07:22:21.100Z,39.9
2022-12-04T07:27:21.095Z,40.1
2022-12-04T07:32:21.103Z,38.5
2022-12-04T07:37:21.124Z,37.5
2022-12-04T07:42:24.088Z,38.8
2022-12-04T07:47:21.180Z,38.1
2022-12-04T07:52:21.111Z,36.7
2022-12-04T07:57:21.112Z,38.6
2022-12-04T08:02:21.115Z,36.5
2022-12-04T08:07:21.132Z,39.0
2022-12-04T08:12:21.125Z,36.0
2022-12-04T08:17:21.196Z,36.0
2022-12-04T08:22:25.004Z,38.2
2022-12-04T08:27:21.123Z,34.9
2022-12-04T08:32:21.182Z,29.6
2022-12-04T08:37:21.135Z,32.5
2022-12-04T08:42:21.139Z,31.5
2022-12-04T08:47:21.180Z,28.7
2022-12-04T08:52:21.144Z,27.4
2022-12-04T08:57:21.142Z,29.6
2022-12-04T09:02:21.150Z,21.3
2022-12-04T09:07:21.142Z,23.7
2022-12-04T09:12:21.151Z,23.8
2022-12-04T09:17:21.226Z,29.7
2022-12-04T09:22:21.156Z,26.3
2022-12-04T09:27:21.163Z,24.9
2022-12-04T09:32:21.171Z,24.8
2022-12-04T09:37:21.162Z,25.3
2022-12-04T09:42:21.160Z,27.5
2022-12-04T09:47:21.166Z,26.0
2022-12-04T09:52:22.161Z,24.8
2022-12-04T09:57:21.177Z,25.4
2022-12-04T10:02:21.417Z,26.9
2022-12-04T10:07:21.169Z,24.0
2022-12-04T10:12:21.169Z,21.0
2022-12-04T10:17:21.176Z,23.2
2022-12-04T10:22:21.180Z,25.2
2022-12-04T10:27:21.198Z,23.5
2022-12-04T10:32:21.189Z,23.9
2022-12-04T10:37:21.184Z,23.5
2022-12-04T10:42:21.199Z,23.9
2022-12-04T10:47:21.192Z,23.1
2022-12-04T10:52:21.200Z,23.2
2022-12-04T10:57:21.198Z,22.2
2022-12-04T11:02:21.284Z,24.3
2022-12-04T11:07:21.214Z,22.9
2022-12-04T11:12:21.203Z,24.2
2022-12-04T11:17:21.198Z,23.2
2022-12-04T11:22:21.212Z,19.6
2022-12-04T11:27:21.210Z,22.3
2022-12-04T11:32:21.220Z,22.6
2022-12-04T11:37:21.239Z,23.5
2022-12-04T11:42:21.228Z,23.1
2022-12-04T11:47:21.228Z,21.5
2022-12-04T11:52:21.225Z,20.6
2022-12-04T11:57:21.220Z,22.3
2022-12-04T12:02:21.381Z,22.0
2022-12-04T12:07:21.229Z,21.4
2022-12-04T12:12:21.236Z,23.4
2022-12-04T12:17:21.241Z,20.8
2022-12-04T12:22:21.236Z,20.8
2022-12-04T12:27:21.246Z,20.9
2022-12-04T12:32:21.308Z,26.4
2022-12-04T12:37:21.242Z,21.6
2022-12-04T12:42:21.241Z,20.8
2022-12-04T12:47:21.248Z,23.4
2022-12-04T12:52:21.258Z,20.7
2022-12-04T12:57:21.254Z,19.0
2022-12-04T13:02:21.297Z,21.0
2022-12-04T13:07:21.269Z,20.8
2022-12-04T13:12:21.263Z,20.9
2022-12-04T13:17:21.264Z,20.6
2022-12-04T13:22:21.286Z,18.5
2022-12-04T13:27:21.273Z,20.4
2022-12-04T13:32:25.574Z,20.3
2022-12-04T13:37:21.366Z,20.0
2022-12-04T13:42:21.276Z,17.4
2022-12-04T13:47:21.282Z,21.1
2022-12-04T13:52:21.291Z,20.3
2022-12-04T13:57:21.402Z,20.8
2022-12-04T14:02:21.375Z,19.2
2022-12-04T14:07:21.290Z,18.5
2022-12-04T14:12:21.295Z,20.4
2022-12-04T14:17:21.302Z,17.3
2022-12-04T14:22:21.303Z,17.8
2022-12-04T14:27:21.316Z,19.9
2022-12-04T14:32:21.308Z,20.5
2022-12-04T14:37:21.305Z,21.9
2022-12-04T14:42:21.318Z,22.7
2022-12-04T14:47:21.311Z,21.9
2022-12-04T14:52:21.305Z,20.4
2022-12-04T14:57:21.310Z,18.9
2022-12-04T15:02:21.320Z,21.3
2022-12-04T15:07:21.315Z,19.9
2022-12-04T15:12:21.325Z,20.0
2022-12-04T15:17:21.326Z,21.9
2022-12-04T15:22:21.319Z,18.4
2022-12-04T15:27:21.341Z,21.8
2022-12-04T15:32:21.331Z,20.1
2022-12-04T15:37:21.331Z,19.2
2022-12-04T15:42:21.336Z,20.6
2022-12-04T15:47:21.332Z,21.2
2022-12-04T15:52:21.335Z,19.3
2022-12-04T15:57:21.342Z,20.6
2022-12-04T16:02:21.340Z,22.2
2022-12-04T16:07:21.370Z,21.2
2022-12-04T16:12:21.347Z,20.3
2022-12-04T16:17:21.349Z,22.4
2022-12-04T16:22:21.360Z,23.7
2022-12-04T16:27:21.354Z,24.5
2022-12-04T16:32:21.361Z,22.8
2022-12-04T16:37:21.361Z,23.7
2022-12-04T16:42:21.368Z,26.0
2022-12-04T16:47:21.360Z,25.5
2022-12-04T16:52:21.373Z,26.4
2022-12-04T16:57:21.369Z,27.8
2022-12-04T17:02:21.445Z,28.2
2022-12-04T17:07:21.375Z,29.3
2022-12-04T17:12:21.373Z,27.0
2022-12-04T17:17:21.377Z,31.1
2022-12-04T17:22:21.388Z,27.3
2022-12-04T17:27:21.383Z,28.2
2022-12-04T17:32:21.392Z,27.9
2022-12-04T17:37:21.391Z,29.2
2022-12-04T17:42:21.397Z,28.1
2022-12-04T17:47:21.486Z,27.6
2022-12-04T17:52:21.399Z,26.8
2022-12-04T17:57:21.399Z,25.2
2022-12-04T18:02:21.463Z,26.7
2022-12-04T18:07:21.401Z,26.8
2022-12-04T18:12:21.512Z,26.3
2022-12-04T18:17:21.398Z,28.1
2022-12-04T18:22:21.413Z,25.4
2022-12-04T18:27:21.409Z,25.6
2022-12-04T18:32:21.414Z,23.7
2022-12-04T18:37:21.540Z,25.7
2022-12-04T18:42:21.426Z,23.3
2022-12-04T18:47:21.421Z,24.9
2022-12-04T18:52:21.426Z,26.0
2022-12-04T18:57:21.420Z,26.7
2022-12-04T19:02:21.514Z,24.1
2022-12-04T19:07:21.439Z,25.5
2022-12-04T19:12:21.435Z,27.0
2022-12-04T19:17:21.436Z,23.7
2022-12-04T19:22:21.449Z,23.2
2022-12-04T19:27:21.460Z,27.1
2022-12-04T19:32:21.502Z,24.2
2022-12-04T19:37:21.452Z,24.2
2022-12-04T19:42:21.447Z,26.5
2022-12-04T19:47:21.750Z,27.8
2022-12-04T19:52:21.458Z,28.0
2022-12-04T19:57:21.458Z,23.7
2022-12-04T20:02:21.505Z,27.8
2022-12-04T20:07:21.465Z,27.8
2022-12-04T20:12:21.770Z,28.0
2022-12-04T20:17:21.467Z,29.8
2022-12-04T20:22:21.509Z,28.5
2022-12-04T20:27:21.468Z,26.6
2022-12-04T20:32:21.476Z,28.9
2022-12-04T20:37:21.649Z,32.2
2022-12-04T20:42:21.492Z,31.8
2022-12-04T20:47:21.481Z,28.3
2022-12-04T20:52:21.483Z,28.5
2022-12-04T20:57:21.487Z,29.5
2022-12-04T21:02:21.546Z,32.3
2022-12-04T21:07:21.488Z,29.2
2022-12-04T21:12:21.495Z,31.6
2022-12-04T21:17:21.488Z,37.1
2022-12-04T21:22:21.495Z,37.1
2022-12-04T21:27:21.596Z,37.5
2022-12-04T21:32:21.502Z,36.7
2022-12-04T21:37:21.500Z,36.2
2022-12-04T21:42:21.526Z,37.3
2022-12-04T21:47:21.513Z,33.4
2022-12-04T21:52:21.520Z,35.6
2022-12-04T21:57:21.521Z,42.5
2022-12-04T22:02:21.610Z,35.8
2022-12-04T22:07:21.519Z,35.0
2022-12-04T22:12:48.060Z,34.1
2022-12-04T22:17:21.528Z,39.6
2022-12-04T22:22:21.531Z,39.1
2022-12-04T22:27:21.533Z,37.7
2022-12-04T22:32:21.536Z,38.5
2022-12-04T22:37:21.539Z,42.8
2022-12-04T22:42:21.539Z,35.7
2022-12-04T22:47:21.542Z,39.1
2022-12-04T22:52:21.547Z,41.0
2022-12-04T22:57:21.544Z,37.7
2022-12-04T23:02:21.549Z,35.8
2022-12-04T23:07:21.553Z,36.5
2022-12-04T23:12:21.556Z,37.5
2022-12-04T23:17:21.558Z,38.3
2022-12-04T23:22:21.560Z,36.7
2022-12-04T23:27:21.555Z,37.6
2022-12-04T23:32:21.568Z,33.6
2022-12-04T23:37:21.564Z,36.4
2022-12-04T23:42:21.568Z,36.8
2022-12-04T23:47:21.782Z,39.0
2022-12-04T23:52:21.581Z,39.4
